createdAt,value
2023-05-14T00:00:22.728Z,100.00
2023-05-14T00:02:49.749Z,100.00
2023-05-14T00:05:16.573Z,100.00
2023-05-14T00:07:43.235Z,100.00
2023-05-14T00:10:10.228Z,100.00
2023-05-14T00:12:36.801Z,100.00
2023-05-14T00:15:03.381Z,100.00
2023-05-14T00:17:30.032Z,100.00
2023-05-14T00:19:56.847Z,100.00
2023-05-14T00:22:23.503Z,100.00
2023-05-14T00:24:50.125Z,100.00
2023-05-14T00:27:16.840Z,100.00
2023-05-14T00:29:43.317Z,100.00
2023-05-14T00:32:09.816Z,100.00
2023-05-14T00:34:36.311Z,100.00
2023-05-14T00:37:02.802Z,100.00
2023-05-14T00:39:29.387Z,100.00
2023-05-14T00:41:56.181Z,100.00
2023-05-14T00:44:22.799Z,100.00
2023-05-14T00:46:49.467Z,100.00
2023-05-14T00:49:16.544Z,100.00
2023-05-14T00:51:43.290Z,100.00
2023-05-14T00:54:09.807Z,100.00
2023-05-14T00:56:36.403Z,100.00
2023-05-14T00:59:02.841Z,100.00
2023-05-14T01:01:29.635Z,100.00
2023-05-14T01:03:56.449Z,100.00
2023-05-14T01:06:59.048Z,100.00
2023-05-14T01:09:46.765Z,100.00
2023-05-14T01:12:25.200Z,100.00
2023-05-14T01:15:07.234Z,100.00
2023-05-14T01:17:46.310Z,100.00
2023-05-14T01:20:12.819Z,100.00
2023-05-14T01:22:39.365Z,100.00
2023-05-14T01:25:06.824Z,100.00
2023-05-14T01:27:43.615Z,100.00
2023-05-14T01:30:19.478Z,100.00
2023-05-14T01:32:51.069Z,100.00
2023-05-14T01:35:18.807Z,100.00
2023-05-14T01:37:47.105Z,100.00
2023-05-14T01:40:13.706Z,100.00
2023-05-14T01:42:41.133Z,100.00
2023-05-14T01:45:08.588Z,100.00
2023-05-14T01:47:35.110Z,100.00
2023-05-14T01:50:01.535Z,100.00
2023-05-14T01:52:27.947Z,100.00
2023-05-14T01:54:54.477Z,100.00
2023-05-14T01:57:20.867Z,100.00
2023-05-14T01:59:47.301Z,100.00
2023-05-14T02:02:13.733Z,100.00
2023-05-14T02:04:40.161Z,100.00
2023-05-14T02:07:06.604Z,100.00
2023-05-14T02:09:33.078Z,100.00
2023-05-14T02:11:59.541Z,100.00
2023-05-14T02:14:25.952Z,100.00
2023-05-14T02:16:52.477Z,100.00
2023-05-14T02:19:18.933Z,100.00
2023-05-14T02:21:45.410Z,100.00
2023-05-14T02:24:11.852Z,100.00
2023-05-14T02:26:38.289Z,100.00
2023-05-14T02:29:04.688Z,100.00
2023-05-14T02:31:31.123Z,100.00
2023-05-14T02:33:57.646Z,100.00
2023-05-14T02:36:24.090Z,100.00
2023-05-14T02:38:50.527Z,100.00
2023-05-14T02:41:16.947Z,100.00
2023-05-14T02:43:43.422Z,100.00
2023-05-14T02:46:09.909Z,100.00
2023-05-14T02:48:36.341Z,100.00
2023-05-14T02:51:02.863Z,100.00
2023-05-14T02:53:29.354Z,100.00
2023-05-14T02:55:55.858Z,100.00
2023-05-14T02:58:26.447Z,100.00
2023-05-14T03:00:55.388Z,100.00
2023-05-14T03:03:22.449Z,100.00
2023-05-14T03:05:49.438Z,100.00
2023-05-14T03:08:15.844Z,100.00
2023-05-14T03:10:42.254Z,100.00
2023-05-14T03:13:08.710Z,100.00
2023-05-14T03:15:35.124Z,100.00
2023-05-14T03:18:01.693Z,100.00
2023-05-14T03:20:28.290Z,100.00
2023-05-14T03:22:54.964Z,100.00
2023-05-14T03:25:21.571Z,100.00
2023-05-14T03:27:48.050Z,100.00
2023-05-14T03:30:14.503Z,100.00
2023-05-14T03:32:40.965Z,100.00
2023-05-14T03:35:07.905Z,100.00
2023-05-14T03:37:34.330Z,100.00
2023-05-14T03:40:00.771Z,100.00
2023-05-14T03:42:27.260Z,100.00
2023-05-14T03:44:53.723Z,99.56
2023-05-14T03:47:20.318Z,93.31
2023-05-14T03:49:46.860Z,92.43
2023-05-14T03:52:13.298Z,91.96
2023-05-14T03:54:39.695Z,92.60
2023-05-14T03:57:06.108Z,91.33
2023-05-14T03:59:32.601Z,91.27
2023-05-14T04:01:59.307Z,90.83
2023-05-14T04:04:26.008Z,90.45
2023-05-14T04:06:52.497Z,90.73
2023-05-14T04:09:18.912Z,91.15
2023-05-14T04:11:45.303Z,90.75
2023-05-14T04:14:11.741Z,90.83
2023-05-14T04:16:38.275Z,90.64
2023-05-14T04:19:04.773Z,90.85
2023-05-14T04:21:31.648Z,90.67
2023-05-14T04:23:58.288Z,90.44
2023-05-14T04:26:24.706Z,90.46
2023-05-14T04:28:51.081Z,90.61
2023-05-14T04:31:17.613Z,90.58
2023-05-14T04:33:44.119Z,90.63
2023-05-14T04:36:10.557Z,91.09
2023-05-14T04:38:36.978Z,91.04
2023-05-14T04:41:03.512Z,91.34
2023-05-14T04:43:29.930Z,91.55
2023-05-14T04:45:56.434Z,91.65
2023-05-14T04:48:22.911Z,91.56
2023-05-14T04:50:49.369Z,91.36
2023-05-14T04:53:15.789Z,91.83
2023-05-14T04:55:42.427Z,91.65
2023-05-14T04:58:08.824Z,91.52
2023-05-14T05:00:35.290Z,92.44
2023-05-14T05:03:01.837Z,92.88
2023-05-14T05:05:28.497Z,93.33
2023-05-14T05:07:55.077Z,93.32
2023-05-14T05:10:21.800Z,93.79
2023-05-14T05:12:48.524Z,93.98
2023-05-14T05:15:14.956Z,94.19
2023-05-14T05:17:41.412Z,94.12
2023-05-14T05:20:08.486Z,94.29
2023-05-14T05:22:34.976Z,94.35
2023-05-14T05:25:01.493Z,94.41
2023-05-14T05:27:28.022Z,94.77
2023-05-14T05:29:54.398Z,94.85
2023-05-14T05:32:20.921Z,94.94
2023-05-14T05:34:47.341Z,94.90
2023-05-14T05:37:13.803Z,94.97
2023-05-14T05:39:40.408Z,95.40
2023-05-14T05:42:07.337Z,95.75
2023-05-14T05:44:33.800Z,95.53
2023-05-14T05:47:00.371Z,95.91
2023-05-14T05:49:26.880Z,95.92
2023-05-14T05:51:53.370Z,96.46
2023-05-14T05:54:19.849Z,96.87
2023-05-14T05:56:46.366Z,97.40
2023-05-14T05:59:12.994Z,97.41
2023-05-14T06:01:39.438Z,98.20
2023-05-14T06:04:05.983Z,99.00
2023-05-14T06:06:32.484Z,100.00
2023-05-14T06:08:59.069Z,100.00
2023-05-14T06:11:25.546Z,100.00
2023-05-14T06:13:51.983Z,100.00
2023-05-14T06:16:18.528Z,100.00
2023-05-14T06:18:45.194Z,100.00
2023-05-14T06:21:11.726Z,100.00
2023-05-14T06:23:38.233Z,100.00
2023-05-14T06:26:04.801Z,100.00
2023-05-14T06:28:31.243Z,100.00
2023-05-14T06:30:57.673Z,100.00
2023-05-14T06:33:24.158Z,100.00
2023-05-14T06:35:50.666Z,100.00
2023-05-14T06:38:17.093Z,100.00
2023-05-14T06:40:43.511Z,100.00
2023-05-14T06:43:09.977Z,100.00
2023-05-14T06:45:36.488Z,100.00
2023-05-14T06:48:03.151Z,100.00
2023-05-14T06:50:29.595Z,100.00
2023-05-14T06:52:56.103Z,100.00
2023-05-14T06:55:22.717Z,100.00
2023-05-14T06:57:49.212Z,100.00
2023-05-14T07:00:16.282Z,100.00
2023-05-14T07:02:42.857Z,100.00
2023-05-14T07:05:10.381Z,100.00
2023-05-14T07:07:36.846Z,100.00
2023-05-14T07:10:03.718Z,100.00
2023-05-14T07:12:30.209Z,100.00
2023-05-14T07:14:56.594Z,100.00
2023-05-14T07:17:23.206Z,100.00
2023-05-14T07:19:49.795Z,100.00
2023-05-14T07:22:16.259Z,100.00
2023-05-14T07:24:42.747Z,100.00
2023-05-14T07:27:09.221Z,100.00
2023-05-14T07:29:35.674Z,100.00
2023-05-14T07:32:02.104Z,100.00
2023-05-14T07:34:28.602Z,100.00
2023-05-14T07:36:55.237Z,100.00
2023-05-14T07:39:21.750Z,100.00
2023-05-14T07:41:48.238Z,100.00
2023-05-14T07:44:14.711Z,100.00
2023-05-14T07:46:42.478Z,100.00
2023-05-14T07:49:08.902Z,100.00
2023-05-14T07:51:35.336Z,100.00
2023-05-14T07:54:01.822Z,100.00
2023-05-14T07:56:28.311Z,100.00
2023-05-14T07:58:54.811Z,100.00
2023-05-14T08:01:21.274Z,100.00
2023-05-14T08:03:47.983Z,100.00
2023-05-14T08:06:14.669Z,100.00
2023-05-14T08:08:41.249Z,100.00
2023-05-14T08:11:07.824Z,100.00
2023-05-14T08:13:34.455Z,100.00
2023-05-14T08:16:00.980Z,100.00
2023-05-14T08:18:27.420Z,100.00
2023-05-14T08:20:53.984Z,100.00
2023-05-14T08:23:20.736Z,100.00
2023-05-14T08:25:47.252Z,100.00
2023-05-14T08:28:13.696Z,100.00
2023-05-14T08:30:40.285Z,100.00
2023-05-14T08:33:06.815Z,100.00
2023-05-14T08:35:33.304Z,100.00
2023-05-14T08:37:59.825Z,100.00
2023-05-14T08:40:26.834Z,100.00
2023-05-14T08:42:55.454Z,100.00
2023-05-14T08:45:27.852Z,100.00
2023-05-14T08:47:55.560Z,100.00
2023-05-14T08:50:23.352Z,100.00
2023-05-14T08:52:50.537Z,100.00
2023-05-14T08:55:17.066Z,100.00
2023-05-14T08:57:43.477Z,100.00
2023-05-14T09:00:10.521Z,100.00
2023-05-14T09:02:38.107Z,100.00
2023-05-14T09:05:04.878Z,100.00
2023-05-14T09:07:31.882Z,100.00
2023-05-14T09:09:59.277Z,100.00
2023-05-14T09:12:25.743Z,100.00
2023-05-14T09:14:52.384Z,100.00
2023-05-14T09:17:19.524Z,100.00
2023-05-14T09:19:47.129Z,100.00
2023-05-14T09:22:16.001Z,100.00
2023-05-14T09:24:43.082Z,100.00
2023-05-14T09:27:10.263Z,100.00
2023-05-14T09:29:36.686Z,100.00
2023-05-14T09:32:03.489Z,100.00
2023-05-14T09:34:32.309Z,100.00
2023-05-14T09:37:06.522Z,100.00
2023-05-14T09:39:34.480Z,100.00
2023-05-14T09:42:00.935Z,100.00
2023-05-14T09:44:27.777Z,100.00
2023-05-14T09:46:55.344Z,100.00
2023-05-14T09:49:22.059Z,100.00
2023-05-14T09:51:49.597Z,100.00
2023-05-14T09:54:16.494Z,100.00
2023-05-14T09:56:44.316Z,100.00
2023-05-14T09:59:11.140Z,100.00
2023-05-14T10:01:37.938Z,100.00
2023-05-14T10:04:07.659Z,100.00
2023-05-14T10:06:38.080Z,100.00
2023-05-14T10:09:10.010Z,100.00
2023-05-14T10:11:38.519Z,100.00
2023-05-14T10:14:13.611Z,100.00
2023-05-14T10:16:44.047Z,100.00
2023-05-14T10:19:12.767Z,100.00
2023-05-14T10:21:41.507Z,100.00
2023-05-14T10:24:09.934Z,100.00
2023-05-14T10:26:39.225Z,100.00
2023-05-14T10:29:06.682Z,100.00
2023-05-14T10:31:50.815Z,100.00
2023-05-14T10:34:43.202Z,100.00
2023-05-14T10:37:15.421Z,100.00
2023-05-14T10:39:47.152Z,100.00
2023-05-14T10:42:25.841Z,100.00
2023-05-14T10:45:01.397Z,100.00
2023-05-14T10:47:39.107Z,100.00
2023-05-14T10:50:07.414Z,100.00
2023-05-14T10:52:34.275Z,100.00
2023-05-14T10:55:05.330Z,100.00
2023-05-14T10:57:32.621Z,100.00
2023-05-14T11:00:02.912Z,100.00
2023-05-14T11:02:32.521Z,100.00
2023-05-14T11:05:10.330Z,100.00
2023-05-14T11:07:42.442Z,100.00
2023-05-14T11:10:14.050Z,100.00
2023-05-14T11:12:42.718Z,100.00
2023-05-14T11:15:11.317Z,100.00
2023-05-14T11:17:40.192Z,100.00
2023-05-14T11:20:07.609Z,100.00
2023-05-14T11:22:35.006Z,100.00
2023-05-14T11:25:01.875Z,100.00
2023-05-14T11:27:28.379Z,100.00
2023-05-14T11:29:54.830Z,100.00
2023-05-14T11:32:21.780Z,100.00
2023-05-14T11:34:48.255Z,100.00
2023-05-14T11:37:16.480Z,100.00
2023-05-14T11:39:50.706Z,100.00
2023-05-14T11:42:18.033Z,100.00
2023-05-14T11:44:48.862Z,100.00
2023-05-14T11:47:17.108Z,100.00
2023-05-14T11:49:43.703Z,100.00
2023-05-14T11:52:10.916Z,100.00
2023-05-14T11:54:37.939Z,100.00
2023-05-14T11:57:12.671Z,100.00
2023-05-14T11:59:39.817Z,100.00
2023-05-14T12:02:10.770Z,100.00
2023-05-14T12:04:37.388Z,100.00
2023-05-14T12:07:15.545Z,100.00
2023-05-14T12:09:46.108Z,100.00
2023-05-14T12:12:12.971Z,100.00
2023-05-14T12:14:42.181Z,100.00
2023-05-14T12:17:19.770Z,100.00
2023-05-14T12:19:48.979Z,100.00
2023-05-14T12:22:18.083Z,100.00
2023-05-14T12:24:53.185Z,100.00
2023-05-14T12:27:22.692Z,100.00
2023-05-14T12:29:49.196Z,100.00
2023-05-14T12:32:15.631Z,100.00
2023-05-14T12:34:42.153Z,100.00
2023-05-14T12:37:08.676Z,100.00
2023-05-14T12:39:35.300Z,100.00
2023-05-14T12:42:01.883Z,100.00
2023-05-14T12:44:28.886Z,100.00
2023-05-14T12:46:55.503Z,100.00
2023-05-14T12:49:22.061Z,100.00
2023-05-14T12:51:48.765Z,100.00
2023-05-14T12:54:15.815Z,100.00
2023-05-14T12:56:42.967Z,100.00
2023-05-14T12:59:09.496Z,100.00
2023-05-14T13:01:36.058Z,100.00
2023-05-14T13:04:02.518Z,100.00
2023-05-14T13:06:29.055Z,100.00
2023-05-14T13:08:55.514Z,100.00
2023-05-14T13:11:21.997Z,100.00
2023-05-14T13:13:48.463Z,100.00
2023-05-14T13:16:15.103Z,100.00
2023-05-14T13:18:41.582Z,100.00
2023-05-14T13:21:08.099Z,100.00
2023-05-14T13:23:34.599Z,100.00
2023-05-14T13:26:01.165Z,100.00
2023-05-14T13:28:27.676Z,100.00
2023-05-14T13:31:11.246Z,100.00
2023-05-14T13:33:41.232Z,100.00
2023-05-14T13:36:08.265Z,100.00
2023-05-14T13:38:34.989Z,100.00
2023-05-14T13:41:01.573Z,100.00
2023-05-14T13:43:29.313Z,100.00
2023-05-14T13:45:55.836Z,100.00
2023-05-14T13:48:22.478Z,100.00
2023-05-14T13:50:49.449Z,100.00
2023-05-14T13:53:15.905Z,100.00
2023-05-14T13:55:42.396Z,100.00
2023-05-14T13:58:08.897Z,100.00
2023-05-14T14:00:35.400Z,100.00
2023-05-14T14:03:01.982Z,100.00
2023-05-14T14:05:28.514Z,100.00
2023-05-14T14:08:01.086Z,100.00
2023-05-14T14:10:34.696Z,100.00
2023-05-14T14:13:01.237Z,100.00
2023-05-14T14:15:27.848Z,100.00
2023-05-14T14:17:54.459Z,100.00
2023-05-14T14:20:21.067Z,100.00
2023-05-14T14:22:47.596Z,100.00
2023-05-14T14:25:14.109Z,100.00
2023-05-14T14:27:40.827Z,100.00
2023-05-14T14:30:09.067Z,100.00
2023-05-14T14:32:35.859Z,100.00
2023-05-14T14:35:02.350Z,100.00
2023-05-14T14:37:28.972Z,100.00
2023-05-14T14:39:55.507Z,100.00
2023-05-14T14:42:21.956Z,100.00
2023-05-14T14:44:48.330Z,100.00
2023-05-14T14:47:14.746Z,100.00
2023-05-14T14:49:41.226Z,100.00
2023-05-14T14:52:08.378Z,100.00
2023-05-14T14:54:34.914Z,100.00
2023-05-14T14:57:01.368Z,100.00
2023-05-14T14:59:27.790Z,100.00
2023-05-14T15:01:54.222Z,100.00
2023-05-14T15:04:20.655Z,100.00
2023-05-14T15:06:47.076Z,100.00
2023-05-14T15:09:13.590Z,100.00
2023-05-14T15:11:40.500Z,100.00
2023-05-14T15:14:06.972Z,100.00
2023-05-14T15:16:33.524Z,100.00
2023-05-14T15:19:00.038Z,100.00
2023-05-14T15:21:26.570Z,100.00
2023-05-14T15:23:52.989Z,100.00
2023-05-14T15:26:19.431Z,100.00
2023-05-14T15:28:45.912Z,100.00
2023-05-14T15:31:12.465Z,100.00
2023-05-14T15:33:38.976Z,100.00
2023-05-14T15:36:06.830Z,100.00
2023-05-14T15:38:33.467Z,100.00
2023-05-14T15:41:00.329Z,100.00
2023-05-14T15:43:26.767Z,100.00
2023-05-14T15:45:53.333Z,100.00
2023-05-14T15:48:19.800Z,100.00
2023-05-14T15:50:49.569Z,100.00
2023-05-14T15:53:16.265Z,100.00
2023-05-14T15:55:42.785Z,100.00
2023-05-14T15:58:09.255Z,100.00
2023-05-14T16:00:35.654Z,100.00
2023-05-14T16:03:02.316Z,100.00
2023-05-14T16:05:29.303Z,100.00
2023-05-14T16:07:55.866Z,100.00
2023-05-14T16:10:22.814Z,100.00
2023-05-14T16:12:49.550Z,100.00
2023-05-14T16:15:17.162Z,100.00
2023-05-14T16:17:43.761Z,100.00
2023-05-14T16:20:11.146Z,100.00
2023-05-14T16:22:37.774Z,100.00
2023-05-14T16:25:04.693Z,100.00
2023-05-14T16:27:31.269Z,100.00
2023-05-14T16:29:58.007Z,100.00
2023-05-14T16:32:24.536Z,100.00
2023-05-14T16:34:51.129Z,100.00
2023-05-14T16:37:18.009Z,100.00
2023-05-14T16:39:44.821Z,100.00
2023-05-14T16:42:11.775Z,100.00
2023-05-14T16:44:38.336Z,100.00
2023-05-14T16:47:05.155Z,100.00
2023-05-14T16:49:31.808Z,100.00
2023-05-14T16:51:58.325Z,100.00
2023-05-14T16:54:24.805Z,100.00
2023-05-14T16:56:51.592Z,100.00
2023-05-14T16:59:18.052Z,100.00
2023-05-14T17:01:44.774Z,100.00
2023-05-14T17:04:11.396Z,100.00
2023-05-14T17:06:38.105Z,100.00
2023-05-14T17:09:04.546Z,100.00
2023-05-14T17:11:31.042Z,100.00
2023-05-14T17:13:57.491Z,100.00
2023-05-14T17:16:24.076Z,100.00
2023-05-14T17:18:50.606Z,100.00
2023-05-14T17:21:17.317Z,100.00
2023-05-14T17:23:43.729Z,100.00
2023-05-14T17:26:10.186Z,100.00
2023-05-14T17:28:36.614Z,100.00
2023-05-14T17:31:03.162Z,100.00
2023-05-14T17:33:29.717Z,100.00
2023-05-14T17:35:56.218Z,100.00
2023-05-14T17:38:22.707Z,100.00
2023-05-14T17:40:49.100Z,100.00
2023-05-14T17:43:15.700Z,100.00
2023-05-14T17:45:53.126Z,100.00
2023-05-14T17:48:20.717Z,100.00
2023-05-14T17:50:47.250Z,100.00
2023-05-14T17:53:13.860Z,100.00
2023-05-14T17:55:40.432Z,100.00
2023-05-14T17:58:07.034Z,100.00
2023-05-14T18:00:33.560Z,100.00
2023-05-14T18:03:00.111Z,100.00
2023-05-14T18:05:26.784Z,100.00
2023-05-14T18:07:53.286Z,100.00
2023-05-14T18:10:19.806Z,100.00
2023-05-14T18:12:46.336Z,100.00
2023-05-14T18:15:12.797Z,100.00
2023-05-14T18:17:39.311Z,100.00
2023-05-14T18:20:07.457Z,100.00
2023-05-14T18:22:33.945Z,100.00
2023-05-14T18:25:00.462Z,100.00
2023-05-14T18:27:26.955Z,100.00
2023-05-14T18:29:53.403Z,100.00
2023-05-14T18:32:19.890Z,100.00
2023-05-14T18:34:46.476Z,100.00
2023-05-14T18:37:13.261Z,100.00
2023-05-14T18:39:39.834Z,100.00
2023-05-14T18:42:06.801Z,100.00
2023-05-14T18:44:33.279Z,100.00
2023-05-14T18:46:59.805Z,100.00
2023-05-14T18:49:26.203Z,100.00
2023-05-14T18:51:52.582Z,100.00
2023-05-14T18:54:19.043Z,100.00
2023-05-14T18:56:47.460Z,100.00
2023-05-14T18:59:14.240Z,100.00
2023-05-14T19:01:40.791Z,100.00
2023-05-14T19:04:07.481Z,100.00
2023-05-14T19:06:34.957Z,100.00
2023-05-14T19:09:01.390Z,100.00
2023-05-14T19:11:27.782Z,100.00
2023-05-14T19:13:54.220Z,100.00
2023-05-14T19:16:20.750Z,100.00
2023-05-14T19:18:47.289Z,100.00
2023-05-14T19:21:13.819Z,100.00
2023-05-14T19:23:40.261Z,100.00
2023-05-14T19:26:07.157Z,100.00
2023-05-14T19:28:33.750Z,100.00
2023-05-14T19:31:00.215Z,100.00
2023-05-14T19:33:26.628Z,100.00
2023-05-14T19:35:53.328Z,100.00
2023-05-14T19:38:19.830Z,100.00
2023-05-14T19:40:46.299Z,100.00
2023-05-14T19:43:12.862Z,100.00
2023-05-14T19:45:39.580Z,100.00
2023-05-14T19:48:06.404Z,100.00
2023-05-14T19:50:33.201Z,100.00
2023-05-14T19:53:00.204Z,100.00
2023-05-14T19:55:26.772Z,100.00
2023-05-14T19:57:53.364Z,100.00
2023-05-14T20:00:20.094Z,100.00
2023-05-14T20:02:46.626Z,100.00
2023-05-14T20:05:13.183Z,100.00
2023-05-14T20:07:40.456Z,100.00
2023-05-14T20:10:07.820Z,100.00
2023-05-14T20:12:34.288Z,100.00
2023-05-14T20:15:00.829Z,100.00
2023-05-14T20:17:27.351Z,100.00
2023-05-14T20:19:53.777Z,100.00
2023-05-14T20:22:20.160Z,100.00
2023-05-14T20:24:46.616Z,100.00
2023-05-14T20:27:13.077Z,100.00
2023-05-14T20:29:39.575Z,100.00
2023-05-14T20:32:06.556Z,100.00
2023-05-14T20:34:32.989Z,100.00
2023-05-14T20:36:59.563Z,100.00
2023-05-14T20:39:25.988Z,100.00
2023-05-14T20:41:52.435Z,100.00
2023-05-14T20:44:20.592Z,100.00
2023-05-14T20:46:47.747Z,100.00
2023-05-14T20:49:14.190Z,100.00
2023-05-14T20:51:40.585Z,100.00
2023-05-14T20:54:07.087Z,100.00
2023-05-14T20:56:33.691Z,100.00
2023-05-14T20:59:00.116Z,100.00
2023-05-14T21:01:26.537Z,100.00
2023-05-14T21:03:53.236Z,100.00
2023-05-14T21:06:19.943Z,100.00
2023-05-14T21:08:46.462Z,100.00
2023-05-14T21:11:13.195Z,100.00
2023-05-14T21:13:39.765Z,100.00
2023-05-14T21:16:06.732Z,100.00
2023-05-14T21:18:33.349Z,100.00
2023-05-14T21:20:59.840Z,100.00
2023-05-14T21:23:26.378Z,100.00
2023-05-14T21:25:52.873Z,100.00
2023-05-14T21:28:19.288Z,100.00
2023-05-14T21:30:45.784Z,100.00
2023-05-14T21:33:12.330Z,100.00
2023-05-14T21:35:38.791Z,100.00
2023-05-14T21:38:05.305Z,100.00
2023-05-14T21:40:31.728Z,100.00
2023-05-14T21:42:58.147Z,100.00
2023-05-14T21:45:24.749Z,100.00
2023-05-14T21:47:51.618Z,100.00
2023-05-14T21:50:18.368Z,100.00
2023-05-14T21:52:44.906Z,100.00
2023-05-14T21:55:11.352Z,100.00
2023-05-14T21:57:37.936Z,100.00
2023-05-14T22:00:05.200Z,100.00
2023-05-14T22:02:32.452Z,100.00
2023-05-14T22:04:59.101Z,100.00
2023-05-14T22:07:25.535Z,100.00
2023-05-14T22:09:52.775Z,100.00
2023-05-14T22:12:19.450Z,100.00
2023-05-14T22:14:46.140Z,100.00
2023-05-14T22:17:12.626Z,100.00
2023-05-14T22:19:39.231Z,100.00
2023-05-14T22:22:05.726Z,100.00
2023-05-14T22:24:32.199Z,100.00
2023-05-14T22:26:58.631Z,100.00
2023-05-14T22:29:25.121Z,100.00
2023-05-14T22:31:51.664Z,100.00
2023-05-14T22:34:18.235Z,100.00
2023-05-14T22:36:44.762Z,100.00
2023-05-14T22:39:13.211Z,100.00
2023-05-14T22:41:40.090Z,100.00
2023-05-14T22:44:06.543Z,100.00
2023-05-14T22:46:33.078Z,100.00
2023-05-14T22:48:59.524Z,100.00
2023-05-14T22:51:26.014Z,100.00
2023-05-14T22:53:52.470Z,100.00
2023-05-14T22:56:19.467Z,100.00
2023-05-14T22:58:45.905Z,100.00
2023-05-14T23:01:12.454Z,100.00
2023-05-14T23:03:39.021Z,100.00
2023-05-14T23:06:05.675Z,100.00
2023-05-14T23:08:32.123Z,100.00
2023-05-14T23:10:59.707Z,100.00
2023-05-14T23:13:26.167Z,100.00
2023-05-14T23:15:52.635Z,100.00
2023-05-14T23:18:19.135Z,100.00
2023-05-14T23:20:45.655Z,100.00
2023-05-14T23:23:12.228Z,100.00
2023-05-14T23:25:39.107Z,100.00
2023-05-14T23:28:06.122Z,100.00
2023-05-14T23:30:32.719Z,100.00
2023-05-14T23:32:59.204Z,100.00
2023-05-14T23:35:26.434Z,100.00
2023-05-14T23:37:53.466Z,100.00
2023-05-14T23:40:19.889Z,100.00
2023-05-14T23:42:46.577Z,100.00
2023-05-14T23:45:13.426Z,100.00
2023-05-14T23:47:40.986Z,100.00
2023-05-14T23:50:07.887Z,100.00
2023-05-14T23:52:34.364Z,100.00
2023-05-14T23:55:00.857Z,100.00
2023-05-14T23:57:27.438Z,100.00
2023-05-14T23:59:53.931Z,100.00
